createdAt,value
2022-10-09T00:04:02.161Z,2.53
2022-10-09T00:08:06.457Z,2.77
2022-10-09T00:12:08.544Z,2.77
2022-10-09T00:16:13.483Z,2.87
2022-10-09T00:20:17.351Z,2.80
2022-10-09T00:24:21.307Z,2.83
2022-10-09T00:28:25.635Z,2.30
2022-10-09T00:32:28.524Z,2.83
2022-10-09T00:36:32.614Z,3.30
2022-10-09T00:40:37.432Z,3.67
2022-10-09T00:44:48.399Z,2.70
2022-10-09T00:49:17.557Z,2.67
2022-10-09T00:53:23.585Z,3.53
2022-10-09T00:57:26.743Z,3.67
2022-10-09T01:01:31.150Z,2.47
2022-10-09T01:05:51.106Z,3.17
2022-10-09T01:10:18.981Z,2.97
2022-10-09T01:14:35.821Z,2.90
2022-10-09T01:18:46.652Z,3.10
2022-10-09T01:23:28.956Z,2.80
2022-10-09T01:27:33.709Z,2.13
2022-10-09T01:31:51.605Z,3.20
2022-10-09T01:35:54.718Z,2.13
2022-10-09T01:40:00.076Z,2.27
2022-10-09T01:44:04.596Z,2.13
2022-10-09T01:48:10.764Z,2.13
2022-10-09T01:52:22.681Z,2.20
2022-10-09T01:56:31.470Z,2.40
2022-10-09T02:05:15.579Z,2.57
2022-10-09T02:09:18.680Z,2.83
2022-10-09T02:13:22.284Z,2.60
2022-10-09T02:17:33.503Z,2.40
2022-10-09T02:22:06.651Z,2.00
2022-10-09T02:26:14.142Z,2.30
2022-10-09T02:30:19.298Z,1.80
2022-10-09T02:34:22.590Z,1.93
2022-10-09T02:38:25.899Z,2.57
2022-10-09T02:42:29.101Z,2.30
2022-10-09T02:46:34.336Z,1.50
2022-10-09T02:50:42.115Z,2.13
2022-10-09T02:54:45.960Z,1.80
2022-10-09T02:58:49.732Z,1.33
2022-10-09T03:02:59.825Z,2.00
2022-10-09T03:07:04.725Z,1.90
2022-10-09T03:11:15.087Z,1.63
2022-10-09T03:15:17.865Z,1.60
2022-10-09T03:19:22.408Z,2.10
2022-10-09T03:23:29.738Z,1.70
2022-10-09T03:27:34.936Z,1.87
2022-10-09T03:31:51.877Z,1.80
2022-10-09T03:35:58.881Z,1.40
2022-10-09T03:40:02.790Z,1.93
2022-10-09T03:44:08.021Z,2.30
2022-10-09T03:48:13.854Z,1.93
2022-10-09T03:52:15.965Z,2.00
2022-10-09T03:56:24.850Z,2.17
2022-10-09T04:00:32.085Z,1.77
2022-10-09T04:04:36.845Z,1.77
2022-10-09T04:08:40.972Z,2.33
2022-10-09T04:12:50.541Z,1.97
2022-10-09T04:16:55.882Z,2.10
2022-10-09T04:21:00.390Z,2.17
2022-10-09T04:25:06.251Z,1.50
2022-10-09T04:29:12.079Z,1.97
2022-10-09T04:33:17.747Z,1.77
2022-10-09T04:37:20.947Z,2.00
2022-10-09T04:41:25.775Z,1.93
2022-10-09T04:45:32.153Z,1.80
2022-10-09T04:49:39.390Z,2.13
2022-10-09T04:53:45.140Z,2.33
2022-10-09T04:57:50.904Z,2.40
2022-10-09T05:01:56.808Z,1.83
2022-10-09T05:06:08.103Z,2.07
2022-10-09T05:10:28.506Z,2.10
2022-10-09T05:14:31.861Z,2.20
2022-10-09T05:18:40.513Z,2.40
2022-10-09T05:22:48.580Z,1.90
2022-10-09T05:26:53.753Z,2.13
2022-10-09T05:31:00.277Z,2.13
2022-10-09T05:35:06.746Z,1.90
2022-10-09T05:39:11.689Z,1.70
2022-10-09T05:43:19.319Z,1.50
2022-10-09T05:47:26.434Z,2.20
2022-10-09T05:51:35.880Z,2.47
2022-10-09T05:55:38.955Z,2.17
2022-10-09T05:59:45.305Z,2.80
2022-10-09T06:04:04.416Z,2.30
2022-10-09T06:08:13.314Z,2.67
2022-10-09T06:12:16.928Z,2.27
2022-10-09T06:16:19.507Z,2.10
2022-10-09T06:20:23.597Z,3.40
2022-10-09T06:24:30.736Z,2.27
2022-10-09T06:28:39.561Z,1.90
2022-10-09T06:32:46.332Z,1.93
2022-10-09T06:36:50.884Z,2.90
2022-10-09T06:40:55.894Z,3.10
2022-10-09T06:45:02.030Z,3.33
2022-10-09T06:49:13.134Z,2.93
2022-10-09T06:53:23.901Z,2.63
2022-10-09T06:57:26.541Z,2.23
2022-10-09T07:01:32.923Z,2.43
2022-10-09T07:05:37.224Z,2.37
2022-10-09T07:09:46.963Z,3.00
2022-10-09T07:13:56.995Z,2.77
2022-10-09T07:18:05.700Z,2.30
2022-10-09T07:22:12.624Z,2.03
2022-10-09T07:26:21.933Z,2.50
2022-10-09T07:30:27.396Z,2.03
2022-10-09T07:34:29.700Z,2.13
2022-10-09T07:38:33.087Z,1.80
2022-10-09T07:42:35.520Z,1.50
2022-10-09T07:46:43.823Z,1.90
2022-10-09T07:50:47.629Z,1.90
2022-10-09T07:54:51.190Z,1.60
2022-10-09T07:59:11.030Z,1.50
2022-10-09T08:03:13.206Z,1.67
2022-10-09T08:07:17.933Z,1.43
2022-10-09T08:11:22.341Z,1.20
2022-10-09T08:15:24.722Z,1.60
2022-10-09T08:19:41.552Z,1.27
2022-10-09T08:23:45.618Z,0.93
2022-10-09T08:27:50.512Z,1.30
2022-10-09T08:31:53.498Z,1.10
2022-10-09T08:36:10.883Z,0.87
2022-10-09T08:41:01.166Z,0.90
2022-10-09T08:45:05.309Z,0.80
2022-10-09T08:53:54.138Z,0.70
2022-10-09T08:58:01.413Z,0.70
2022-10-09T09:07:26.426Z,0.77
2022-10-09T09:16:46.182Z,0.70
2022-10-09T09:21:08.749Z,0.50
2022-10-09T09:25:38.465Z,0.97
2022-10-09T09:30:00.785Z,0.50
2022-10-09T09:34:17.637Z,0.60
2022-10-09T09:38:32.464Z,0.40
2022-10-09T09:42:41.670Z,0.50
2022-10-09T09:46:51.985Z,0.50
2022-10-09T09:51:16.294Z,0.50
2022-10-09T09:59:46.904Z,0.50
2022-10-09T10:08:38.146Z,0.40
2022-10-09T10:13:00.399Z,0.53
2022-10-09T10:17:05.309Z,0.50
2022-10-09T10:21:17.481Z,0.40
2022-10-09T10:25:31.302Z,0.57
2022-10-09T10:38:32.216Z,0.50
2022-10-09T10:42:48.798Z,0.40
2022-10-09T10:47:08.507Z,0.50
2022-10-09T10:51:32.938Z,0.40
2022-10-09T10:56:04.279Z,0.30
2022-10-09T11:00:13.891Z,0.30
2022-10-09T11:04:49.260Z,0.87
2022-10-09T11:09:15.972Z,0.57
2022-10-09T11:13:32.595Z,0.50
2022-10-09T11:18:13.082Z,0.43
2022-10-09T11:22:22.612Z,0.40
2022-10-09T11:27:03.859Z,0.50
2022-10-09T11:31:18.035Z,0.57
2022-10-09T11:35:30.441Z,0.60
2022-10-09T11:39:34.840Z,0.40
2022-10-09T11:43:59.120Z,0.40
2022-10-09T11:48:14.648Z,0.40
2022-10-09T11:52:58.427Z,0.40
2022-10-09T11:57:06.601Z,0.57
2022-10-09T12:01:28.008Z,0.70
2022-10-09T12:05:43.958Z,0.53
2022-10-09T12:09:49.333Z,0.40
2022-10-09T12:14:02.600Z,0.60
2022-10-09T12:18:47.507Z,0.70
2022-10-09T12:23:25.102Z,0.40
2022-10-09T12:27:32.543Z,0.50
2022-10-09T12:32:00.207Z,0.30
2022-10-09T12:36:23.413Z,0.60
2022-10-09T12:40:32.042Z,0.70
2022-10-09T12:44:42.940Z,0.40
2022-10-09T12:48:48.125Z,0.40
2022-10-09T12:53:17.544Z,0.70
2022-10-09T12:57:25.327Z,0.63
2022-10-09T13:01:32.749Z,0.40
2022-10-09T13:05:41.056Z,0.50
2022-10-09T13:09:44.817Z,0.70
2022-10-09T13:13:55.461Z,0.60
2022-10-09T13:17:57.488Z,0.73
2022-10-09T13:22:20.106Z,0.60
2022-10-09T13:26:28.277Z,0.57
2022-10-09T13:30:43.814Z,0.63
2022-10-09T13:34:47.964Z,0.70
2022-10-09T13:38:50.976Z,0.70
2022-10-09T13:42:56.619Z,0.63
2022-10-09T13:47:01.905Z,0.50
2022-10-09T13:51:13.782Z,0.50
2022-10-09T13:55:18.117Z,0.60
2022-10-09T13:59:21.817Z,0.53
2022-10-09T14:03:24.426Z,0.50
2022-10-09T14:07:27.001Z,0.60
2022-10-09T14:11:36.878Z,0.50
2022-10-09T14:15:40.397Z,0.50
2022-10-09T14:19:44.379Z,0.40
2022-10-09T14:23:48.547Z,0.43
2022-10-09T14:27:51.026Z,0.60
2022-10-09T14:31:54.374Z,0.70
2022-10-09T14:36:04.605Z,0.50
2022-10-09T14:40:07.226Z,0.60
2022-10-09T14:44:17.541Z,0.60
2022-10-09T14:52:37.625Z,0.50
2022-10-09T14:56:42.758Z,0.60
2022-10-09T15:00:50.653Z,0.50
2022-10-09T15:04:54.220Z,0.60
2022-10-09T15:09:03.217Z,0.50
2022-10-09T15:13:16.268Z,0.70
2022-10-09T15:17:22.872Z,0.60
2022-10-09T15:21:36.331Z,0.50
2022-10-09T15:25:49.942Z,0.77
2022-10-09T15:29:52.228Z,0.70
2022-10-09T15:33:56.336Z,0.80
2022-10-09T15:37:59.818Z,0.70
2022-10-09T15:42:06.980Z,0.73
2022-10-09T15:46:11.748Z,1.20
2022-10-09T15:50:16.980Z,1.03
2022-10-09T15:54:18.954Z,1.20
2022-10-09T15:58:21.534Z,0.90
2022-10-09T16:02:26.409Z,1.17
2022-10-09T16:06:29.952Z,1.00
2022-10-09T16:10:34.936Z,0.80
2022-10-09T16:14:41.042Z,1.17
2022-10-09T16:23:09.705Z,1.17
2022-10-09T16:27:15.752Z,0.70
2022-10-09T16:31:35.669Z,1.10
2022-10-09T16:35:44.089Z,0.90
2022-10-09T16:39:52.631Z,0.90
2022-10-09T16:43:58.093Z,0.93
2022-10-09T16:52:46.646Z,1.60
2022-10-09T17:01:18.953Z,1.73
2022-10-09T17:05:33.716Z,1.07
2022-10-09T17:18:21.784Z,1.30
2022-10-09T17:22:42.418Z,1.33
2022-10-09T17:26:53.696Z,1.90
2022-10-09T17:35:30.633Z,1.80
2022-10-09T17:39:44.125Z,2.27
2022-10-09T17:43:58.370Z,2.33
2022-10-09T17:48:05.667Z,2.40
2022-10-09T17:52:19.434Z,3.60
2022-10-09T18:00:52.172Z,2.73
2022-10-09T18:05:22.029Z,2.73
2022-10-09T18:09:45.005Z,1.90
2022-10-09T18:14:06.370Z,1.83
2022-10-09T18:23:10.466Z,1.17
2022-10-09T18:27:30.598Z,1.30
2022-10-09T18:31:57.468Z,1.00
2022-10-09T18:36:32.022Z,0.90
2022-10-09T18:45:02.921Z,0.83
2022-10-09T18:49:14.581Z,1.00
2022-10-09T18:53:30.705Z,0.80
2022-10-09T18:57:39.926Z,0.80
2022-10-09T19:06:25.878Z,0.80
2022-10-09T19:15:11.741Z,0.73
2022-10-09T19:24:12.774Z,1.03
2022-10-09T19:37:39.451Z,0.73
2022-10-09T19:46:25.461Z,0.90
2022-10-09T19:50:47.481Z,0.90
2022-10-09T20:00:14.963Z,0.70
2022-10-09T20:04:33.596Z,0.50
2022-10-09T20:08:51.027Z,0.60
2022-10-09T20:22:40.947Z,0.67
2022-10-09T20:36:53.965Z,0.73
2022-10-09T20:46:15.949Z,0.60
2022-10-09T21:00:43.699Z,0.70
2022-10-09T21:05:02.384Z,0.50
2022-10-09T21:09:33.445Z,0.70
2022-10-09T21:27:35.535Z,0.83
2022-10-09T21:36:35.158Z,0.73
2022-10-09T21:41:11.864Z,0.77
2022-10-09T21:46:01.119Z,1.00
2022-10-09T21:50:37.998Z,1.00
2022-10-09T22:09:28.845Z,1.20
2022-10-09T23:28:56.214Z,1.77
